createdAt,value
2023-03-31T00:00:54.181Z,100281.84
2023-03-31T00:03:24.086Z,100264.81
2023-03-31T00:05:58.143Z,100275.53
2023-03-31T00:08:30.348Z,100265.72
2023-03-31T00:10:59.540Z,100268.41
2023-03-31T00:13:27.304Z,100255.91
2023-03-31T00:15:58.194Z,100251.47
2023-03-31T00:18:26.855Z,100238.03
2023-03-31T00:20:57.919Z,100230.91
2023-03-31T00:23:28.944Z,100222.91
2023-03-31T00:25:56.762Z,100226.53
2023-03-31T00:28:24.486Z,100222.94
2023-03-31T00:30:52.899Z,100224.56
2023-03-31T00:33:21.233Z,100214.75
2023-03-31T00:35:52.774Z,100220.75
2023-03-31T00:38:21.934Z,100207.38
2023-03-31T00:40:53.425Z,100210.91
2023-03-31T00:43:33.368Z,100179.63
2023-03-31T00:46:13.685Z,100189.47
2023-03-31T00:48:46.934Z,100180.53
2023-03-31T00:51:15.009Z,100175.13
2023-03-31T00:53:43.328Z,100182.38
2023-03-31T00:56:15.735Z,100172.63
2023-03-31T00:58:44.691Z,100164.50
2023-03-31T01:01:17.146Z,100172.66
2023-03-31T01:03:46.107Z,100183.50
2023-03-31T01:06:16.815Z,100175.50
2023-03-31T01:08:45.432Z,100168.50
2023-03-31T01:11:19.833Z,100162.50
2023-03-31T01:13:50.804Z,100161.75
2023-03-31T01:16:18.765Z,100154.72
2023-03-31T01:18:49.596Z,100160.06
2023-03-31T01:21:47.219Z,100149.41
2023-03-31T01:24:51.847Z,100135.19
2023-03-31T01:27:58.659Z,100130.91
2023-03-31T01:31:24.447Z,100134.56
2023-03-31T01:34:11.363Z,100113.16
2023-03-31T01:37:18.319Z,100097.97
2023-03-31T01:40:12.121Z,100097.09
2023-03-31T01:42:46.209Z,100098.91
2023-03-31T01:45:25.201Z,100085.44
2023-03-31T01:47:59.176Z,100081.00
2023-03-31T01:50:32.318Z,100081.00
2023-03-31T01:53:06.959Z,100071.16
2023-03-31T01:55:39.207Z,100069.28
2023-03-31T01:58:13.265Z,100064.81
2023-03-31T02:00:46.741Z,100057.69
2023-03-31T02:03:19.299Z,100042.44
2023-03-31T02:05:52.552Z,100040.66
2023-03-31T02:08:24.409Z,100037.91
2023-03-31T02:10:55.101Z,100039.63
2023-03-31T02:13:26.673Z,100027.97
2023-03-31T02:15:58.668Z,100027.06
2023-03-31T02:18:30.692Z,100020.88
2023-03-31T02:20:59.945Z,100010.19
2023-03-31T02:23:31.670Z,100002.25
2023-03-31T02:26:04.863Z,99987.03
2023-03-31T02:28:33.047Z,99987.91
2023-03-31T02:31:11.051Z,99986.09
2023-03-31T02:33:38.967Z,99984.28
2023-03-31T02:36:08.078Z,99972.66
2023-03-31T02:38:41.207Z,99956.53
2023-03-31T02:41:10.742Z,99961.84
2023-03-31T02:43:38.700Z,99946.66
2023-03-31T02:46:06.805Z,99936.84
2023-03-31T02:48:38.817Z,99929.72
2023-03-31T02:51:36.622Z,99927.03
2023-03-31T02:54:23.356Z,99916.28
2023-03-31T02:57:13.289Z,99901.97
2023-03-31T02:59:54.173Z,99885.97
2023-03-31T03:02:34.098Z,99877.00
2023-03-31T03:05:18.779Z,99871.72
2023-03-31T03:07:49.639Z,99870.81
2023-03-31T03:10:27.909Z,99867.38
2023-03-31T03:13:02.002Z,99861.13
2023-03-31T03:15:35.090Z,99855.53
2023-03-31T03:18:03.803Z,99845.75
2023-03-31T03:20:33.959Z,99837.78
2023-03-31T03:23:01.633Z,99830.66
2023-03-31T03:25:30.286Z,99830.69
2023-03-31T03:27:59.350Z,99837.78
2023-03-31T03:30:27.062Z,99819.94
2023-03-31T03:32:56.077Z,99811.00
2023-03-31T03:35:23.850Z,99799.34
2023-03-31T03:37:51.508Z,99796.75
2023-03-31T03:40:19.421Z,99787.63
2023-03-31T03:42:47.083Z,99780.50
2023-03-31T03:45:16.110Z,99778.78
2023-03-31T03:47:43.970Z,99777.81
2023-03-31T03:50:16.009Z,99777.88
2023-03-31T03:52:43.979Z,99778.81
2023-03-31T03:55:12.277Z,99772.66
2023-03-31T03:57:39.991Z,99778.88
2023-03-31T04:00:10.224Z,99772.78
2023-03-31T04:02:39.723Z,99761.19
2023-03-31T04:05:07.952Z,99730.75
2023-03-31T04:07:35.816Z,99720.09
2023-03-31T04:10:03.500Z,99719.28
2023-03-31T04:12:31.125Z,99720.19
2023-03-31T04:14:58.740Z,99716.66
2023-03-31T04:17:32.661Z,99738.13
2023-03-31T04:20:04.620Z,99726.56
2023-03-31T04:22:35.616Z,99735.53
2023-03-31T04:25:04.294Z,99716.00
2023-03-31T04:27:33.799Z,99701.66
2023-03-31T04:30:01.471Z,99693.56
2023-03-31T04:32:32.888Z,99682.19
2023-03-31T04:35:04.996Z,99668.75
2023-03-31T04:37:34.885Z,99671.47
2023-03-31T04:40:09.307Z,99663.34
2023-03-31T04:42:37.427Z,99659.81
2023-03-31T04:45:05.897Z,99642.09
2023-03-31T04:47:33.572Z,99633.28
2023-03-31T04:50:02.717Z,99624.44
2023-03-31T04:52:30.449Z,99611.16
2023-03-31T04:54:58.150Z,99614.81
2023-03-31T04:57:25.995Z,99605.19
2023-03-31T04:59:53.707Z,99603.41
2023-03-31T05:02:25.292Z,99599.72
2023-03-31T05:04:53.690Z,99587.19
2023-03-31T05:07:22.812Z,99576.63
2023-03-31T05:09:50.464Z,99574.81
2023-03-31T05:12:18.134Z,99572.22
2023-03-31T05:14:45.899Z,99566.91
2023-03-31T05:17:13.528Z,99564.34
2023-03-31T05:19:41.193Z,99561.72
2023-03-31T05:22:08.820Z,99547.66
2023-03-31T05:24:38.067Z,99559.38
2023-03-31T05:27:06.607Z,99560.34
2023-03-31T05:29:34.315Z,99553.28
2023-03-31T05:32:02.129Z,99550.53
2023-03-31T05:34:30.149Z,99546.97
2023-03-31T05:36:58.516Z,99549.53
2023-03-31T05:42:22.785Z,99532.47
2023-03-31T05:44:50.571Z,99525.34
2023-03-31T05:47:18.358Z,99516.47
2023-03-31T05:49:46.227Z,99521.59
2023-03-31T05:52:14.102Z,99510.78
2023-03-31T05:54:42.798Z,99503.50
2023-03-31T05:57:10.950Z,99511.38
2023-03-31T05:59:42.152Z,99506.91
2023-03-31T06:02:13.637Z,99506.81
2023-03-31T06:04:42.274Z,99498.84
2023-03-31T06:07:10.185Z,99498.66
2023-03-31T06:09:37.955Z,99488.72
2023-03-31T06:12:06.556Z,99494.88
2023-03-31T06:14:34.234Z,99490.31
2023-03-31T06:17:03.348Z,99484.25
2023-03-31T06:19:31.440Z,99477.19
2023-03-31T06:21:59.815Z,99481.56
2023-03-31T06:24:27.618Z,99472.63
2023-03-31T06:26:55.572Z,99471.63
2023-03-31T06:29:23.344Z,99470.69
2023-03-31T06:31:51.116Z,99470.63
2023-03-31T06:34:21.465Z,99467.09
2023-03-31T06:36:49.483Z,99471.41
2023-03-31T06:39:17.297Z,99469.53
2023-03-31T06:41:44.989Z,99471.91
2023-03-31T06:44:12.692Z,99469.28
2023-03-31T06:46:40.498Z,99466.75
2023-03-31T06:49:08.302Z,99468.63
2023-03-31T06:51:37.541Z,99467.91
2023-03-31T06:54:05.265Z,99466.16
2023-03-31T06:56:33.203Z,99461.78
2023-03-31T06:59:00.929Z,99461.69
2023-03-31T07:01:28.675Z,99456.22
2023-03-31T07:03:56.713Z,99456.16
2023-03-31T07:06:24.604Z,99450.91
2023-03-31T07:08:53.828Z,99461.84
2023-03-31T07:11:21.486Z,99454.78
2023-03-31T07:13:49.189Z,99454.06
2023-03-31T07:16:17.017Z,99452.19
2023-03-31T07:18:45.329Z,99454.06
2023-03-31T07:21:13.200Z,99453.13
2023-03-31T07:23:41.182Z,99446.88
2023-03-31T07:26:11.397Z,99446.81
2023-03-31T07:28:39.231Z,99448.63
2023-03-31T07:31:12.745Z,99441.47
2023-03-31T07:33:40.896Z,99440.72
2023-03-31T07:36:13.343Z,99438.03
2023-03-31T07:38:42.340Z,99436.19
2023-03-31T07:41:14.197Z,99447.78
2023-03-31T07:43:42.224Z,99428.19
2023-03-31T07:46:16.386Z,99431.72
2023-03-31T07:48:44.312Z,99429.09
2023-03-31T07:51:12.044Z,99425.59
2023-03-31T07:53:39.755Z,99414.06
2023-03-31T07:56:08.059Z,99413.16
2023-03-31T07:58:37.584Z,99410.41
2023-03-31T08:01:06.223Z,99414.78
2023-03-31T08:03:34.486Z,99417.44
2023-03-31T08:06:02.625Z,99413.75
2023-03-31T08:08:30.359Z,99414.47
2023-03-31T08:10:58.107Z,99402.00
2023-03-31T08:13:26.013Z,99402.69
2023-03-31T08:15:55.104Z,99406.13
2023-03-31T08:18:22.946Z,99404.06
2023-03-31T08:20:50.882Z,99397.63
2023-03-31T08:23:18.723Z,99396.53
2023-03-31T08:25:47.283Z,99406.16
2023-03-31T08:28:15.083Z,99387.28
2023-03-31T08:30:42.976Z,99389.03
2023-03-31T08:33:13.199Z,99400.47
2023-03-31T08:35:41.065Z,99394.97
2023-03-31T08:38:08.825Z,99396.81
2023-03-31T08:40:37.020Z,99391.72
2023-03-31T08:43:09.267Z,99393.47
2023-03-31T08:45:40.954Z,99390.91
2023-03-31T08:48:19.227Z,99391.78
2023-03-31T08:50:52.942Z,99388.06
2023-03-31T08:53:26.171Z,99388.84
2023-03-31T08:55:55.603Z,99386.03
2023-03-31T08:58:35.211Z,99387.75
2023-03-31T09:01:10.375Z,99389.44
2023-03-31T09:03:53.168Z,99377.81
2023-03-31T09:06:27.620Z,99381.47
2023-03-31T09:09:00.639Z,99369.75
2023-03-31T09:11:36.484Z,99362.72
2023-03-31T09:14:27.459Z,99368.91
2023-03-31T09:17:06.889Z,99367.03
2023-03-31T09:19:39.895Z,99357.25
2023-03-31T09:22:14.039Z,99359.13
2023-03-31T09:24:50.942Z,99349.19
2023-03-31T09:27:20.238Z,99345.47
2023-03-31T09:29:52.940Z,99344.56
2023-03-31T09:32:22.524Z,99332.72
2023-03-31T09:34:54.682Z,99330.50
2023-03-31T09:37:22.530Z,99333.72
2023-03-31T09:39:50.611Z,99312.75
2023-03-31T09:42:19.539Z,99319.38
2023-03-31T09:44:50.013Z,99313.41
2023-03-31T09:47:27.105Z,99316.44
2023-03-31T09:49:56.228Z,99308.59
2023-03-31T09:52:30.543Z,99304.06
2023-03-31T09:55:01.491Z,99299.56
2023-03-31T09:57:33.533Z,99296.16
2023-03-31T10:00:14.697Z,99297.25
2023-03-31T10:02:45.809Z,99301.38
2023-03-31T10:05:27.381Z,99312.94
2023-03-31T10:08:18.987Z,99311.69
2023-03-31T10:10:49.428Z,99306.91
2023-03-31T10:13:20.266Z,99302.09
2023-03-31T10:15:47.970Z,99305.22
2023-03-31T10:18:18.193Z,99306.75
2023-03-31T10:20:51.987Z,99297.50
2023-03-31T10:23:26.273Z,99285.28
2023-03-31T10:25:54.646Z,99288.75
2023-03-31T10:28:23.661Z,99285.19
2023-03-31T10:30:53.476Z,99286.16
2023-03-31T10:33:25.013Z,99284.72
2023-03-31T10:35:58.930Z,99276.06
2023-03-31T10:38:31.801Z,99270.03
2023-03-31T10:41:00.895Z,99271.78
2023-03-31T10:43:30.616Z,99268.72
2023-03-31T10:46:01.352Z,99262.97
2023-03-31T10:48:30.692Z,99265.16
2023-03-31T10:51:05.740Z,99265.41
2023-03-31T10:53:42.242Z,99273.31
2023-03-31T10:56:22.637Z,99277.44
2023-03-31T10:59:06.584Z,99285.81
2023-03-31T11:01:48.271Z,99291.69
2023-03-31T11:04:47.746Z,99271.78
2023-03-31T11:07:29.500Z,99285.66
2023-03-31T11:10:10.299Z,99274.47
2023-03-31T11:12:44.976Z,99284.16
2023-03-31T11:15:22.936Z,99274.75
2023-03-31T11:18:03.355Z,99273.00
2023-03-31T11:20:41.752Z,99269.75
2023-03-31T11:23:21.125Z,99274.97
2023-03-31T11:25:54.374Z,99271.34
2023-03-31T11:28:40.705Z,99273.88
2023-03-31T11:31:22.052Z,99273.56
2023-03-31T11:34:02.456Z,99275.56
2023-03-31T11:36:44.525Z,99269.78
2023-03-31T11:39:29.937Z,99271.31
2023-03-31T11:42:02.214Z,99267.56
2023-03-31T11:44:37.984Z,99260.22
2023-03-31T11:47:10.677Z,99262.78
2023-03-31T11:49:42.540Z,99260.22
2023-03-31T11:52:16.574Z,99265.06
2023-03-31T11:54:54.165Z,99260.56
2023-03-31T11:57:28.596Z,99269.19
2023-03-31T12:00:00.739Z,99242.38
2023-03-31T12:02:37.625Z,99260.63
2023-03-31T12:05:08.258Z,99255.25
2023-03-31T12:07:41.789Z,99256.69
2023-03-31T12:10:20.142Z,99244.22
2023-03-31T12:12:54.026Z,99244.13
2023-03-31T12:15:24.972Z,99244.22
2023-03-31T12:17:58.718Z,99241.13
2023-03-31T12:20:31.836Z,99241.28
2023-03-31T12:23:01.221Z,99233.69
2023-03-31T12:25:43.632Z,99238.00
2023-03-31T12:28:12.941Z,99242.47
2023-03-31T12:30:44.293Z,99240.88
2023-03-31T12:33:19.559Z,99230.84
2023-03-31T12:36:09.625Z,99233.53
2023-03-31T12:38:58.150Z,99228.31
2023-03-31T12:41:33.113Z,99231.56
2023-03-31T12:44:17.835Z,99221.41
2023-03-31T12:47:15.439Z,99216.81
2023-03-31T12:49:56.238Z,99217.28
2023-03-31T12:52:32.630Z,99206.44
2023-03-31T12:55:25.107Z,99208.75
2023-03-31T12:57:54.192Z,99198.75
2023-03-31T13:00:25.687Z,99196.41
2023-03-31T13:03:37.927Z,99188.72
2023-03-31T13:06:06.723Z,99178.97
2023-03-31T13:08:56.844Z,99180.66
2023-03-31T13:11:38.470Z,99175.22
2023-03-31T13:14:14.525Z,99187.06
2023-03-31T13:16:42.448Z,99175.44
2023-03-31T13:19:13.270Z,99176.47
2023-03-31T13:21:54.948Z,99172.91
2023-03-31T13:24:23.468Z,99167.91
2023-03-31T13:26:54.097Z,99165.56
2023-03-31T13:29:26.641Z,99169.78
2023-03-31T13:32:11.098Z,99166.47
2023-03-31T13:34:44.644Z,99175.44
2023-03-31T13:37:22.764Z,99166.06
2023-03-31T13:40:14.567Z,99163.88
2023-03-31T13:43:17.114Z,99158.06
2023-03-31T13:46:03.354Z,99163.34
2023-03-31T13:48:41.590Z,99160.66
2023-03-31T13:51:37.688Z,99164.25
2023-03-31T13:54:40.207Z,99141.72
2023-03-31T13:57:45.445Z,99144.41
2023-03-31T14:00:27.089Z,99138.94
2023-03-31T14:03:27.926Z,99135.91
2023-03-31T14:06:00.747Z,99138.06
2023-03-31T14:08:41.034Z,99134.44
2023-03-31T14:11:25.073Z,99126.34
2023-03-31T14:14:04.352Z,99131.97
2023-03-31T14:16:36.411Z,99125.38
2023-03-31T14:19:29.329Z,99119.13
2023-03-31T14:22:05.904Z,99126.19
2023-03-31T14:24:41.095Z,99127.56
2023-03-31T14:27:24.094Z,99136.44
2023-03-31T14:30:00.249Z,99137.09
2023-03-31T14:32:36.906Z,99144.00
2023-03-31T14:35:23.738Z,99153.03
2023-03-31T14:37:54.151Z,99154.00
2023-03-31T14:40:21.916Z,99177.16
2023-03-31T14:42:50.734Z,99169.63
2023-03-31T14:45:21.931Z,99161.09
2023-03-31T14:47:57.802Z,99174.53
2023-03-31T14:50:32.703Z,99177.91
2023-03-31T14:53:01.370Z,99153.13
2023-03-31T14:55:49.423Z,99151.78
2023-03-31T14:58:28.062Z,99150.16
2023-03-31T15:00:56.510Z,99151.50
2023-03-31T15:03:27.532Z,99145.63
2023-03-31T15:05:59.699Z,99148.47
2023-03-31T15:08:29.652Z,99146.03
2023-03-31T15:11:11.960Z,99142.13
2023-03-31T15:13:56.820Z,99139.34
2023-03-31T15:16:36.640Z,99127.97
2023-03-31T15:19:13.270Z,99124.59
2023-03-31T15:21:42.548Z,99117.13
2023-03-31T15:24:13.315Z,99115.47
2023-03-31T15:26:46.959Z,99106.66
2023-03-31T15:29:22.218Z,99112.22
2023-03-31T15:31:51.136Z,99096.97
2023-03-31T15:34:24.805Z,99113.88
2023-03-31T15:36:57.383Z,99094.53
2023-03-31T15:39:25.950Z,99108.25
2023-03-31T15:41:54.571Z,99096.75
2023-03-31T15:44:39.474Z,99103.81
2023-03-31T15:47:17.283Z,99104.88
2023-03-31T15:49:54.153Z,99102.41
2023-03-31T15:52:27.974Z,99106.06
2023-03-31T15:54:56.633Z,99104.97
2023-03-31T15:57:32.565Z,99101.13
2023-03-31T16:00:00.893Z,99107.31
2023-03-31T16:02:41.532Z,99123.03
2023-03-31T16:05:27.181Z,99087.47
2023-03-31T16:07:58.418Z,99092.22
2023-03-31T16:10:27.166Z,99087.16
2023-03-31T16:12:59.937Z,99095.13
2023-03-31T16:15:33.669Z,99091.81
2023-03-31T16:18:04.522Z,99107.06
2023-03-31T16:20:37.163Z,99108.06
2023-03-31T16:23:15.786Z,99114.44
2023-03-31T16:25:44.494Z,99111.84
2023-03-31T16:28:16.699Z,99107.56
2023-03-31T16:30:48.059Z,99121.38
2023-03-31T16:33:18.974Z,99117.97
2023-03-31T16:35:51.038Z,99123.56
2023-03-31T16:38:21.685Z,99120.94
2023-03-31T16:40:51.757Z,99114.81
2023-03-31T16:43:21.364Z,99110.44
2023-03-31T16:45:50.175Z,99107.25
2023-03-31T16:48:20.722Z,99107.25
2023-03-31T16:50:50.217Z,99100.22
2023-03-31T16:53:22.199Z,99094.06
2023-03-31T16:55:50.486Z,99098.63
2023-03-31T16:58:18.882Z,99096.00
2023-03-31T17:00:49.685Z,99094.47
2023-03-31T17:03:17.712Z,99098.47
2023-03-31T17:05:47.402Z,99103.84
2023-03-31T17:08:16.832Z,99099.41
2023-03-31T17:10:53.186Z,99100.72
2023-03-31T17:13:21.658Z,99089.50
2023-03-31T17:15:50.574Z,99107.22
2023-03-31T17:18:20.229Z,99107.56
2023-03-31T17:20:48.107Z,99102.41
2023-03-31T17:23:15.961Z,99108.72
2023-03-31T17:25:49.556Z,99109.66
2023-03-31T17:28:19.961Z,99103.19
2023-03-31T17:30:48.798Z,99105.94
2023-03-31T17:33:17.161Z,99099.69
2023-03-31T17:35:45.172Z,99108.81
2023-03-31T17:38:14.418Z,99099.91
2023-03-31T17:40:43.242Z,99102.88
2023-03-31T17:43:13.967Z,99111.13
2023-03-31T17:45:42.279Z,99099.66
2023-03-31T17:48:10.718Z,99095.91
2023-03-31T17:50:38.791Z,99104.78
2023-03-31T17:53:09.072Z,99096.75
2023-03-31T17:55:38.349Z,99098.78
2023-03-31T17:58:08.511Z,99098.03
2023-03-31T18:00:37.897Z,99105.16
2023-03-31T18:03:05.777Z,99094.56
2023-03-31T18:05:37.071Z,99102.69
2023-03-31T18:08:05.163Z,99093.03
2023-03-31T18:10:33.325Z,99092.09
2023-03-31T18:13:01.607Z,99094.09
2023-03-31T18:15:29.354Z,99094.09
2023-03-31T18:17:58.692Z,99102.41
2023-03-31T18:20:26.462Z,99094.50
2023-03-31T18:22:54.170Z,99108.63
2023-03-31T18:25:22.026Z,99093.41
2023-03-31T18:27:50.632Z,99106.09
2023-03-31T18:30:18.886Z,99108.00
2023-03-31T18:32:46.664Z,99108.22
2023-03-31T18:35:19.954Z,99105.81
2023-03-31T18:37:50.329Z,99100.31
2023-03-31T18:40:19.932Z,99098.63
2023-03-31T18:42:48.369Z,99112.94
2023-03-31T18:45:16.096Z,99105.00
2023-03-31T18:47:43.899Z,99118.50
2023-03-31T18:50:13.880Z,99101.44
2023-03-31T18:52:43.004Z,99104.88
2023-03-31T18:55:11.224Z,99114.63
2023-03-31T18:57:38.973Z,99107.44
2023-03-31T19:00:08.311Z,99110.81
2023-03-31T19:02:36.870Z,99113.44
2023-03-31T19:05:05.089Z,99106.44
2023-03-31T19:07:33.500Z,99110.81
2023-03-31T19:10:02.705Z,99110.81
2023-03-31T19:12:30.612Z,99111.66
2023-03-31T19:14:58.346Z,99111.66
2023-03-31T19:17:26.303Z,99112.50
2023-03-31T19:19:54.055Z,99109.03
2023-03-31T19:22:21.928Z,99106.47
2023-03-31T19:24:49.698Z,99103.69
2023-03-31T19:27:18.765Z,99106.22
2023-03-31T19:29:46.509Z,99109.81
2023-03-31T19:32:14.299Z,99116.19
2023-03-31T19:34:42.554Z,99117.13
2023-03-31T19:37:11.069Z,99112.66
2023-03-31T19:39:39.068Z,99119.94
2023-03-31T19:42:06.882Z,99111.53
2023-03-31T19:44:36.835Z,99114.34
2023-03-31T19:47:05.004Z,99119.22
2023-03-31T19:49:32.777Z,99128.44
2023-03-31T19:52:00.785Z,99115.06
2023-03-31T19:54:28.681Z,99124.13
2023-03-31T19:56:56.496Z,99110.16
2023-03-31T19:59:24.468Z,99106.72
2023-03-31T20:01:53.694Z,99106.84
2023-03-31T20:04:21.911Z,99095.28
2023-03-31T20:06:49.742Z,99098.88
2023-03-31T20:09:17.566Z,99104.25
2023-03-31T20:11:45.561Z,99093.34
2023-03-31T20:14:15.055Z,99102.47
2023-03-31T20:16:44.493Z,99098.03
2023-03-31T20:19:16.268Z,99096.50
2023-03-31T20:21:45.678Z,99101.78
2023-03-31T20:24:17.911Z,99097.22
2023-03-31T20:26:46.243Z,99092.00
2023-03-31T20:29:14.307Z,99100.09
2023-03-31T20:31:42.522Z,99105.25
2023-03-31T20:34:14.176Z,99088.25
2023-03-31T20:36:44.041Z,99105.31
2023-03-31T20:39:13.905Z,99098.41
2023-03-31T20:41:41.959Z,99103.88
2023-03-31T20:44:13.507Z,99105.00
2023-03-31T20:46:44.376Z,99103.19
2023-03-31T20:49:13.993Z,99099.78
2023-03-31T20:51:42.592Z,99104.16
2023-03-31T20:54:10.786Z,99106.00
2023-03-31T20:56:41.389Z,99097.84
2023-03-31T20:59:12.077Z,99093.31
2023-03-31T21:01:42.232Z,99103.09
2023-03-31T21:04:13.071Z,99096.06
2023-03-31T21:06:43.075Z,99109.66
2023-03-31T21:09:12.695Z,99099.22
2023-03-31T21:11:41.515Z,99101.03
2023-03-31T21:14:12.324Z,99096.47
2023-03-31T21:16:41.084Z,99099.84
2023-03-31T21:19:08.916Z,99095.41
2023-03-31T21:21:41.059Z,99085.72
2023-03-31T21:24:10.176Z,99099.16
2023-03-31T21:26:38.184Z,99084.97
2023-03-31T21:29:06.024Z,99092.75
2023-03-31T21:31:33.848Z,99103.63
2023-03-31T21:34:02.628Z,99090.38
2023-03-31T21:36:30.476Z,99090.06
2023-03-31T21:38:59.912Z,99099.03
2023-03-31T21:41:30.330Z,99086.59
2023-03-31T21:44:00.582Z,99088.25
2023-03-31T21:46:32.785Z,99087.06
2023-03-31T21:49:01.089Z,99088.97
2023-03-31T21:51:29.136Z,99088.03
2023-03-31T21:53:57.370Z,99089.03
2023-03-31T21:56:32.137Z,99086.47
2023-03-31T21:59:04.228Z,99089.16
2023-03-31T22:01:32.416Z,99089.09
2023-03-31T22:04:00.313Z,99088.31
2023-03-31T22:06:28.214Z,99090.19
2023-03-31T22:08:56.027Z,99088.16
2023-03-31T22:11:24.387Z,99091.00
2023-03-31T22:13:53.577Z,99090.94
2023-03-31T22:16:23.352Z,99084.03
2023-03-31T22:18:52.671Z,99086.66
2023-03-31T22:21:22.865Z,99087.78
2023-03-31T22:23:52.398Z,99084.84
2023-03-31T22:26:20.115Z,99073.44
2023-03-31T22:28:47.913Z,99084.34
2023-03-31T22:31:17.342Z,99070.78
2023-03-31T22:33:45.315Z,99080.63
2023-03-31T22:36:13.617Z,99082.38
2023-03-31T22:38:41.919Z,99073.50
2023-03-31T22:41:09.638Z,99080.63
2023-03-31T22:43:37.418Z,99085.97
2023-03-31T22:46:05.812Z,99072.72
2023-03-31T22:48:35.646Z,99072.97
2023-03-31T22:51:05.002Z,99079.19
2023-03-31T22:53:33.131Z,99077.44
2023-03-31T22:56:06.114Z,99084.00
2023-03-31T22:58:33.926Z,99081.34
2023-03-31T23:01:02.155Z,99083.09
2023-03-31T23:03:30.186Z,99083.16
2023-03-31T23:06:03.201Z,99087.78
2023-03-31T23:08:31.085Z,99077.97
2023-03-31T23:11:00.676Z,99080.81
2023-03-31T23:13:29.569Z,99070.06
2023-03-31T23:15:57.949Z,99070.31
2023-03-31T23:18:25.818Z,99075.34
2023-03-31T23:20:53.522Z,99072.59
2023-03-31T23:23:22.673Z,99078.13
2023-03-31T23:25:50.378Z,99084.19
2023-03-31T23:28:18.461Z,99081.47
2023-03-31T23:30:53.895Z,99078.00
2023-03-31T23:33:21.577Z,99070.19
2023-03-31T23:35:50.095Z,99071.16
2023-03-31T23:38:18.161Z,99075.53
2023-03-31T23:40:48.450Z,99071.94
2023-03-31T23:43:17.408Z,99066.78
2023-03-31T23:45:45.165Z,99069.25
2023-03-31T23:48:12.948Z,99073.84
2023-03-31T23:50:40.718Z,99066.41
2023-03-31T23:53:08.432Z,99067.38
2023-03-31T23:55:36.572Z,99067.63
2023-03-31T23:58:06.243Z,99066.78
